createdAt,value
2019-05-20T00:00:18.061Z,18.00
2019-05-20T00:02:47.577Z,19.65
2019-05-20T00:05:16.977Z,18.77
2019-05-20T00:07:46.384Z,18.87
2019-05-20T00:10:16.263Z,18.85
2019-05-20T00:12:45.644Z,18.45
2019-05-20T00:15:15.635Z,19.65
2019-05-20T00:17:45.019Z,18.07
2019-05-20T00:20:15.149Z,17.77
2019-05-20T00:22:44.503Z,21.30
2019-05-20T00:25:13.881Z,19.20
2019-05-20T00:27:43.318Z,22.70
2019-05-20T00:30:13.293Z,23.42
2019-05-20T00:32:42.756Z,24.15
2019-05-20T00:35:12.728Z,23.32
2019-05-20T00:37:42.144Z,24.45
2019-05-20T00:40:11.801Z,25.23
2019-05-20T00:42:41.539Z,25.20
2019-05-20T00:45:12.165Z,25.65
2019-05-20T00:47:41.595Z,25.55
2019-05-20T00:50:11.497Z,26.30
2019-05-20T00:52:40.853Z,27.77
2019-05-20T00:55:16.144Z,27.17
2019-05-20T00:57:45.583Z,26.02
2019-05-20T01:00:15.412Z,28.40
2019-05-20T01:02:56.368Z,27.82
2019-05-20T01:05:15.930Z,26.02
2019-05-20T01:07:45.432Z,25.15
2019-05-20T01:10:15.443Z,26.75
2019-05-20T01:12:45.104Z,23.52
2019-05-20T01:15:15.708Z,22.65
2019-05-20T01:17:45.103Z,22.25
2019-05-20T01:20:15.517Z,20.55
2019-05-20T01:22:44.959Z,21.87
2019-05-20T01:25:14.543Z,21.33
2019-05-20T01:27:43.931Z,21.05
2019-05-20T01:30:14.231Z,21.02
2019-05-20T01:32:43.672Z,19.75
2019-05-20T01:35:14.733Z,21.12
2019-05-20T01:37:44.124Z,24.85
2019-05-20T01:40:14.037Z,23.50
2019-05-20T01:42:43.417Z,22.80
2019-05-20T01:45:13.430Z,26.52
2019-05-20T01:47:42.881Z,24.75
2019-05-20T01:50:12.656Z,27.32
2019-05-20T01:52:42.112Z,24.95
2019-05-20T01:55:11.920Z,24.52
2019-05-20T01:57:41.283Z,22.87
2019-05-20T02:00:11.831Z,22.40
2019-05-20T02:02:41.279Z,21.80
2019-05-20T02:05:11.282Z,20.17
2019-05-20T02:07:40.759Z,21.60
2019-05-20T02:10:11.027Z,19.35
2019-05-20T02:12:40.411Z,18.15
2019-05-20T02:15:23.840Z,17.60
2019-05-20T02:17:53.287Z,13.78
2019-05-20T02:20:22.722Z,14.47
2019-05-20T02:22:53.811Z,14.78
2019-05-20T02:25:23.168Z,16.30
2019-05-20T02:27:53.559Z,16.57
2019-05-20T02:30:22.983Z,13.68
2019-05-20T02:32:52.452Z,12.93
2019-05-20T02:35:21.903Z,12.30
2019-05-20T02:37:51.339Z,12.23
2019-05-20T02:40:20.804Z,13.25
2019-05-20T02:42:50.258Z,12.28
2019-05-20T02:45:20.116Z,12.78
2019-05-20T02:47:49.504Z,12.15
2019-05-20T02:50:19.042Z,11.57
2019-05-20T02:52:48.624Z,13.45
2019-05-20T02:55:18.146Z,11.88
2019-05-20T02:57:47.581Z,14.05
2019-05-20T03:00:17.301Z,13.30
2019-05-20T03:02:46.746Z,12.60
2019-05-20T03:05:16.373Z,12.33
2019-05-20T03:07:45.832Z,12.63
2019-05-20T03:10:15.451Z,12.23
2019-05-20T03:12:44.869Z,11.95
2019-05-20T03:15:15.107Z,13.03
2019-05-20T03:17:44.533Z,11.00
2019-05-20T03:20:14.041Z,11.18
2019-05-20T03:22:43.480Z,11.30
2019-05-20T03:25:14.785Z,11.20
2019-05-20T03:27:44.329Z,11.50
2019-05-20T03:30:14.108Z,12.78
2019-05-20T03:32:43.536Z,11.50
2019-05-20T03:35:13.343Z,12.37
2019-05-20T03:37:42.779Z,11.43
2019-05-20T03:40:12.660Z,11.70
2019-05-20T03:42:42.115Z,11.53
2019-05-20T03:45:12.817Z,12.75
2019-05-20T03:47:42.269Z,12.30
2019-05-20T03:50:12.658Z,11.50
2019-05-20T03:52:42.113Z,12.47
2019-05-20T03:55:12.189Z,12.53
2019-05-20T03:57:41.636Z,12.53
2019-05-20T04:00:11.716Z,11.45
2019-05-20T04:02:42.438Z,11.80
2019-05-20T04:05:12.107Z,10.03
2019-05-20T04:07:41.455Z,9.65
2019-05-20T04:10:11.433Z,9.60
2019-05-20T04:12:40.851Z,10.20
2019-05-20T04:15:10.602Z,10.15
2019-05-20T04:17:40.041Z,10.35
2019-05-20T04:20:09.844Z,9.83
2019-05-20T04:22:39.232Z,10.00
2019-05-20T04:25:09.309Z,9.50
2019-05-20T04:27:39.973Z,10.75
2019-05-20T04:30:09.778Z,9.03
2019-05-20T04:32:39.232Z,10.00
2019-05-20T04:35:21.464Z,9.38
2019-05-20T04:37:40.829Z,9.48
2019-05-20T04:40:10.625Z,8.85
2019-05-20T04:42:40.044Z,9.95
2019-05-20T04:45:10.524Z,11.28
2019-05-20T04:47:39.951Z,10.35
2019-05-20T04:50:09.712Z,11.10
2019-05-20T04:52:39.144Z,11.73
2019-05-20T04:55:08.753Z,10.45
2019-05-20T04:57:38.185Z,10.80
2019-05-20T05:00:09.381Z,10.88
2019-05-20T05:02:42.627Z,12.25
2019-05-20T05:05:10.471Z,10.95
2019-05-20T05:07:39.979Z,11.25
2019-05-20T05:10:10.293Z,12.45
2019-05-20T05:12:39.724Z,11.68
2019-05-20T05:15:10.052Z,10.25
2019-05-20T05:17:39.530Z,13.25
2019-05-20T05:20:17.628Z,13.78
2019-05-20T05:22:40.328Z,11.08
2019-05-20T05:25:10.702Z,13.20
2019-05-20T05:27:40.084Z,11.35
2019-05-20T05:30:10.209Z,11.10
2019-05-20T05:32:43.681Z,9.95
2019-05-20T05:35:16.170Z,8.68
2019-05-20T05:37:45.827Z,9.53
2019-05-20T05:40:15.968Z,9.05
2019-05-20T05:42:45.371Z,8.08
2019-05-20T05:45:14.903Z,7.70
2019-05-20T05:47:44.276Z,7.53
2019-05-20T05:50:14.093Z,7.78
2019-05-20T05:52:43.523Z,7.33
2019-05-20T05:55:13.184Z,7.55
2019-05-20T05:57:42.680Z,7.70
2019-05-20T06:00:12.488Z,8.50
2019-05-20T06:02:41.988Z,7.85
2019-05-20T06:05:11.411Z,8.73
2019-05-20T06:07:40.786Z,8.90
2019-05-20T06:10:10.639Z,10.18
2019-05-20T06:12:40.050Z,9.48
2019-05-20T06:15:11.372Z,11.90
2019-05-20T06:17:40.873Z,13.18
2019-05-20T06:20:11.284Z,13.62
2019-05-20T06:22:40.784Z,14.50
2019-05-20T06:25:11.932Z,16.75
2019-05-20T06:27:41.823Z,15.63
2019-05-20T06:30:15.237Z,16.00
2019-05-20T06:32:44.710Z,16.97
2019-05-20T06:35:15.884Z,16.80
2019-05-20T06:37:47.304Z,18.37
2019-05-20T06:40:17.419Z,18.25
2019-05-20T06:42:46.877Z,12.98
2019-05-20T06:45:16.561Z,15.03
2019-05-20T06:47:45.986Z,13.75
2019-05-20T06:50:16.003Z,12.68
2019-05-20T06:52:45.560Z,13.25
2019-05-20T06:55:15.633Z,12.90
2019-05-20T06:57:45.439Z,12.82
2019-05-20T07:00:16.728Z,10.28
2019-05-20T07:02:46.168Z,11.40
2019-05-20T07:05:15.954Z,12.03
2019-05-20T07:07:45.431Z,10.00
2019-05-20T07:10:15.384Z,9.98
2019-05-20T07:12:44.836Z,10.00
2019-05-20T07:15:14.574Z,10.80
2019-05-20T07:17:44.013Z,9.98
2019-05-20T07:20:13.796Z,9.43
2019-05-20T07:22:55.141Z,10.05
2019-05-20T07:25:14.905Z,9.83
2019-05-20T07:27:44.520Z,9.20
2019-05-20T07:30:15.666Z,10.53
2019-05-20T07:32:45.358Z,10.30
2019-05-20T07:35:28.919Z,9.90
2019-05-20T07:37:46.115Z,9.38
2019-05-20T07:40:18.635Z,9.93
2019-05-20T07:42:48.075Z,10.75
2019-05-20T07:45:17.829Z,10.53
2019-05-20T07:47:47.715Z,10.32
2019-05-20T07:50:18.065Z,8.83
2019-05-20T07:52:47.944Z,9.48
2019-05-20T07:55:17.511Z,9.53
2019-05-20T07:57:49.403Z,9.10
2019-05-20T08:00:19.208Z,9.93
2019-05-20T08:02:48.660Z,8.45
2019-05-20T08:05:18.099Z,9.55
2019-05-20T08:07:52.712Z,9.35
2019-05-20T08:10:19.635Z,9.03
2019-05-20T08:12:49.068Z,9.18
2019-05-20T08:15:18.783Z,10.70
2019-05-20T08:17:48.329Z,10.63
2019-05-20T08:20:18.148Z,10.38
2019-05-20T08:22:47.582Z,10.98
2019-05-20T08:25:18.056Z,11.05
2019-05-20T08:27:47.488Z,10.93
2019-05-20T08:30:19.936Z,11.08
2019-05-20T08:32:49.359Z,11.95
2019-05-20T08:35:19.018Z,12.20
2019-05-20T08:37:48.451Z,11.50
2019-05-20T08:40:18.185Z,10.08
2019-05-20T08:42:47.600Z,10.75
2019-05-20T08:45:18.303Z,11.22
2019-05-20T08:47:47.771Z,12.28
2019-05-20T08:50:17.925Z,12.55
2019-05-20T08:52:47.495Z,11.85
2019-05-20T08:55:17.343Z,11.30
2019-05-20T08:57:46.784Z,12.80
2019-05-20T09:00:23.266Z,11.60
2019-05-20T09:02:52.871Z,12.40
2019-05-20T09:05:22.278Z,11.80
2019-05-20T09:08:02.144Z,12.65
2019-05-20T09:10:23.004Z,12.15
2019-05-20T09:12:52.699Z,12.53
2019-05-20T09:15:44.716Z,11.63
2019-05-20T09:18:12.703Z,10.50
2019-05-20T09:20:42.128Z,11.25
2019-05-20T09:23:11.630Z,11.38
2019-05-20T09:25:41.189Z,11.43
2019-05-20T09:28:10.811Z,10.98
2019-05-20T09:30:40.244Z,10.40
2019-05-20T09:33:10.039Z,10.15
2019-05-20T09:35:39.668Z,9.88
2019-05-20T09:38:19.407Z,10.03
2019-05-20T09:40:48.654Z,8.88
2019-05-20T09:43:18.206Z,8.23
2019-05-20T09:46:04.183Z,8.55
2019-05-20T09:48:18.630Z,7.95
2019-05-20T09:50:48.143Z,7.62
2019-05-20T09:53:17.659Z,7.12
2019-05-20T09:55:47.394Z,7.60
2019-05-20T09:58:16.884Z,7.05
2019-05-20T10:00:47.161Z,7.28
2019-05-20T10:03:17.640Z,7.92
2019-05-20T10:05:47.068Z,7.95
2019-05-20T10:08:16.439Z,8.55
2019-05-20T10:10:45.880Z,8.68
2019-05-20T10:13:15.380Z,9.10
2019-05-20T10:15:44.829Z,9.08
2019-05-20T10:18:14.216Z,10.00
2019-05-20T10:20:43.656Z,10.32
2019-05-20T10:23:15.798Z,11.08
2019-05-20T10:25:44.196Z,13.20
2019-05-20T10:28:13.600Z,13.08
2019-05-20T10:30:43.077Z,13.85
2019-05-20T10:33:12.909Z,13.45
2019-05-20T10:35:42.341Z,12.93
2019-05-20T10:38:11.786Z,12.47
2019-05-20T10:40:41.690Z,12.10
2019-05-20T10:43:11.113Z,11.08
2019-05-20T10:45:40.483Z,10.48
2019-05-20T10:48:09.916Z,10.75
2019-05-20T10:50:39.472Z,9.65
2019-05-20T10:53:08.904Z,9.50
2019-05-20T10:55:38.429Z,9.18
2019-05-20T10:58:07.875Z,9.53
2019-05-20T11:00:37.304Z,9.53
2019-05-20T11:03:06.756Z,9.30
2019-05-20T11:05:36.484Z,10.03
2019-05-20T11:08:05.946Z,9.45
2019-05-20T11:10:35.380Z,9.70
2019-05-20T11:13:04.817Z,11.48
2019-05-20T11:15:34.176Z,11.60
2019-05-20T11:18:04.837Z,10.20
2019-05-20T11:20:34.328Z,11.10
2019-05-20T11:23:04.105Z,10.68
2019-05-20T11:25:33.716Z,11.03
2019-05-20T11:28:04.484Z,10.50
2019-05-20T11:30:33.944Z,11.10
2019-05-20T11:33:03.428Z,11.20
2019-05-20T11:35:34.308Z,11.12
2019-05-20T11:38:03.747Z,11.85
2019-05-20T11:40:33.255Z,10.30
2019-05-20T11:43:02.712Z,10.10
2019-05-20T11:45:32.139Z,10.08
2019-05-20T11:48:01.607Z,9.25
2019-05-20T11:50:31.208Z,10.32
2019-05-20T11:53:00.897Z,9.38
2019-05-20T11:55:30.357Z,10.03
2019-05-20T11:58:14.440Z,9.48
2019-05-20T12:00:30.857Z,9.43
2019-05-20T12:03:00.308Z,10.03
2019-05-20T12:05:29.765Z,10.10
2019-05-20T12:07:59.195Z,10.30
2019-05-20T12:10:28.566Z,9.50
2019-05-20T12:12:57.921Z,10.68
2019-05-20T12:15:27.275Z,10.70
2019-05-20T12:17:56.656Z,10.38
2019-05-20T12:20:26.102Z,10.43
2019-05-20T12:22:55.512Z,9.13
2019-05-20T12:25:24.926Z,11.03
2019-05-20T12:27:54.521Z,10.32
2019-05-20T12:30:24.277Z,10.58
2019-05-20T12:33:17.366Z,10.32
2019-05-20T12:35:25.245Z,8.60
2019-05-20T12:37:54.728Z,8.63
2019-05-20T12:40:24.507Z,9.70
2019-05-20T12:42:54.053Z,10.25
2019-05-20T12:45:23.488Z,10.38
2019-05-20T12:47:53.541Z,9.35
2019-05-20T12:50:24.315Z,8.98
2019-05-20T12:52:53.686Z,9.30
2019-05-20T12:55:23.087Z,8.78
2019-05-20T12:57:52.461Z,8.65
2019-05-20T13:00:21.957Z,8.23
2019-05-20T13:02:51.546Z,10.20
2019-05-20T13:05:21.093Z,10.28
2019-05-20T13:07:50.813Z,10.18
2019-05-20T13:10:31.846Z,9.60
2019-05-20T13:12:51.634Z,12.05
2019-05-20T13:15:21.642Z,12.05
2019-05-20T13:17:51.287Z,12.95
2019-05-20T13:20:22.748Z,11.97
2019-05-20T13:22:52.327Z,10.90
2019-05-20T13:25:21.843Z,11.35
2019-05-20T13:27:51.348Z,12.43
2019-05-20T13:30:21.419Z,17.42
2019-05-20T13:32:51.160Z,18.70
2019-05-20T13:35:20.936Z,16.62
2019-05-20T13:37:50.327Z,17.85
2019-05-20T13:40:20.223Z,17.20
2019-05-20T13:42:49.659Z,20.95
2019-05-20T13:45:19.644Z,21.68
2019-05-20T13:47:49.009Z,22.02
2019-05-20T13:50:19.177Z,18.27
2019-05-20T13:52:48.625Z,25.88
2019-05-20T13:55:18.060Z,28.87
2019-05-20T13:57:48.691Z,38.58
2019-05-20T14:00:18.884Z,45.20
2019-05-20T14:02:48.319Z,38.85
2019-05-20T14:05:17.846Z,31.93
2019-05-20T14:07:47.275Z,27.10
2019-05-20T14:10:16.804Z,26.52
2019-05-20T14:12:46.325Z,36.33
2019-05-20T14:15:16.201Z,45.30
2019-05-20T14:17:45.748Z,50.48
2019-05-20T14:20:15.886Z,59.15
2019-05-20T14:22:45.339Z,54.08
2019-05-20T14:25:14.962Z,52.25
2019-05-20T14:27:44.410Z,46.77
2019-05-20T14:30:14.466Z,37.95
2019-05-20T14:32:44.165Z,40.90
2019-05-20T14:35:13.936Z,38.08
2019-05-20T14:37:43.359Z,37.95
2019-05-20T14:40:13.000Z,40.05
2019-05-20T14:42:42.492Z,41.35
2019-05-20T14:45:13.065Z,36.88
2019-05-20T14:47:42.478Z,31.17
2019-05-20T14:50:12.856Z,34.53
2019-05-20T14:52:42.309Z,33.67
2019-05-20T14:55:12.123Z,31.65
2019-05-20T14:57:41.628Z,26.62
2019-05-20T15:00:12.498Z,25.05
2019-05-20T15:02:41.951Z,23.47
2019-05-20T15:05:12.033Z,19.02
2019-05-20T15:07:41.481Z,18.70
2019-05-20T15:10:11.616Z,19.77
2019-05-20T15:12:41.026Z,28.32
2019-05-20T15:15:11.025Z,30.35
2019-05-20T15:17:40.580Z,25.30
2019-05-20T15:20:11.223Z,26.65
2019-05-20T15:22:40.764Z,25.35
2019-05-20T15:25:11.578Z,26.10
2019-05-20T15:27:41.310Z,27.52
2019-05-20T15:30:12.411Z,26.97
2019-05-20T15:32:42.312Z,27.10
2019-05-20T15:35:11.878Z,30.43
2019-05-20T15:37:41.476Z,32.23
2019-05-20T15:40:12.056Z,29.92
2019-05-20T15:42:41.579Z,24.65
2019-05-20T15:45:11.912Z,25.12
2019-05-20T15:47:41.339Z,28.95
2019-05-20T15:50:11.179Z,31.97
2019-05-20T15:52:40.619Z,34.35
2019-05-20T15:55:10.199Z,37.80
2019-05-20T15:57:39.620Z,27.00
2019-05-20T16:00:10.183Z,30.35
2019-05-20T16:02:39.621Z,34.05
2019-05-20T16:05:09.754Z,30.27
2019-05-20T16:07:39.328Z,29.48
2019-05-20T16:10:09.130Z,26.52
2019-05-20T16:12:38.646Z,25.55
2019-05-20T16:15:09.028Z,22.70
2019-05-20T16:17:38.416Z,22.30
2019-05-20T16:20:09.363Z,22.27
2019-05-20T16:22:38.813Z,22.07
2019-05-20T16:25:08.852Z,27.07
2019-05-20T16:27:39.326Z,29.82
2019-05-20T16:30:10.736Z,29.70
2019-05-20T16:32:40.159Z,36.63
2019-05-20T16:35:10.209Z,28.55
2019-05-20T16:37:40.331Z,28.07
2019-05-20T16:40:10.805Z,26.90
2019-05-20T16:42:40.801Z,26.48
2019-05-20T16:45:12.341Z,33.98
2019-05-20T16:47:42.963Z,41.90
2019-05-20T16:50:12.776Z,45.92
2019-05-20T16:52:42.209Z,44.75
2019-05-20T16:55:11.956Z,44.38
2019-05-20T16:57:41.737Z,40.33
2019-05-20T17:00:30.003Z,34.45
2019-05-20T17:02:44.580Z,30.00
2019-05-20T17:05:14.540Z,28.98
2019-05-20T17:07:43.968Z,28.77
2019-05-20T17:10:14.375Z,29.27
2019-05-20T17:12:43.824Z,34.23
2019-05-20T17:15:13.833Z,31.68
2019-05-20T17:17:43.358Z,32.05
2019-05-20T17:20:13.322Z,27.58
2019-05-20T17:22:42.827Z,28.15
2019-05-20T17:25:13.312Z,27.40
2019-05-20T17:27:42.737Z,25.85
2019-05-20T17:30:13.522Z,25.85
2019-05-20T17:32:44.644Z,24.85
2019-05-20T17:35:14.685Z,26.87
2019-05-20T17:37:44.271Z,24.37
2019-05-20T17:40:14.570Z,22.25
2019-05-20T17:42:44.211Z,23.83
2019-05-20T17:45:16.565Z,24.15
2019-05-20T17:47:47.333Z,25.82
2019-05-20T17:50:18.563Z,31.10
2019-05-20T17:52:48.091Z,27.05
2019-05-20T17:55:17.767Z,25.60
2019-05-20T17:57:48.327Z,26.77
2019-05-20T18:00:22.660Z,29.85
2019-05-20T18:02:52.563Z,34.10
2019-05-20T18:05:22.992Z,33.15
2019-05-20T18:07:52.668Z,32.55
2019-05-20T18:10:23.709Z,28.45
2019-05-20T18:12:53.211Z,28.45
2019-05-20T18:15:22.830Z,24.75
2019-05-20T18:17:52.274Z,23.05
2019-05-20T18:20:21.764Z,26.35
2019-05-20T18:22:51.263Z,34.78
2019-05-20T18:25:22.013Z,36.35
2019-05-20T18:27:51.484Z,37.45
2019-05-20T18:30:21.512Z,43.33
2019-05-20T18:32:50.984Z,44.58
2019-05-20T18:35:20.434Z,41.75
2019-05-20T18:37:49.876Z,42.93
2019-05-20T18:40:21.145Z,41.90
2019-05-20T18:42:50.611Z,40.40
2019-05-20T18:45:20.098Z,41.40
2019-05-20T18:47:49.455Z,44.15
2019-05-20T18:50:19.333Z,40.63
2019-05-20T18:52:48.692Z,40.40
2019-05-20T18:55:18.067Z,41.45
2019-05-20T18:57:47.488Z,39.75
2019-05-20T19:00:17.611Z,44.13
2019-05-20T19:02:47.912Z,40.08
2019-05-20T19:05:17.896Z,42.60
2019-05-20T19:07:47.817Z,43.50
2019-05-20T19:10:18.220Z,44.50
2019-05-20T19:12:47.867Z,42.73
2019-05-20T19:15:18.043Z,42.03
2019-05-20T19:17:47.476Z,36.70
2019-05-20T19:20:17.337Z,33.53
2019-05-20T19:22:46.783Z,32.93
2019-05-20T19:25:16.145Z,27.37
2019-05-20T19:27:45.564Z,28.12
2019-05-20T19:30:16.853Z,26.05
2019-05-20T19:32:46.606Z,26.82
2019-05-20T19:35:16.503Z,27.30
2019-05-20T19:37:46.112Z,24.75
2019-05-20T19:40:15.819Z,24.72
2019-05-20T19:42:45.656Z,26.60
2019-05-20T19:45:15.164Z,25.45
2019-05-20T19:47:44.545Z,26.27
2019-05-20T19:50:14.515Z,25.27
2019-05-20T19:52:44.061Z,25.17
2019-05-20T19:55:13.664Z,24.20
2019-05-20T19:57:43.075Z,24.10
2019-05-20T20:00:12.857Z,24.05
2019-05-20T20:02:42.319Z,24.75
2019-05-20T20:05:12.328Z,22.48
2019-05-20T20:07:42.028Z,25.17
2019-05-20T20:10:12.191Z,28.10
2019-05-20T20:12:41.557Z,24.57
2019-05-20T20:15:18.476Z,27.17
2019-05-20T20:17:47.911Z,28.10
2019-05-20T20:20:17.362Z,26.00
2019-05-20T20:22:46.810Z,26.42
2019-05-20T20:25:16.315Z,31.70
2019-05-20T20:27:46.155Z,29.00
2019-05-20T20:30:15.761Z,26.17
2019-05-20T20:32:45.373Z,29.52
2019-05-20T20:35:15.270Z,26.82
2019-05-20T20:37:44.686Z,27.93
2019-05-20T20:40:14.374Z,28.47
2019-05-20T20:42:43.799Z,26.60
2019-05-20T20:45:13.711Z,24.92
2019-05-20T20:47:43.195Z,25.10
2019-05-20T20:50:13.205Z,24.10
2019-05-20T20:52:42.636Z,25.20
2019-05-20T20:55:13.789Z,26.35
2019-05-20T20:57:43.608Z,27.45
2019-05-20T21:00:13.518Z,24.63
2019-05-20T21:02:52.903Z,24.30
2019-05-20T21:05:14.471Z,25.68
2019-05-20T21:07:43.824Z,28.85
2019-05-20T21:10:13.497Z,27.93
2019-05-20T21:12:42.928Z,29.40
2019-05-20T21:15:13.011Z,31.75
2019-05-20T21:17:42.453Z,36.13
2019-05-20T21:20:12.048Z,32.42
2019-05-20T21:22:42.558Z,31.27
2019-05-20T21:25:12.663Z,27.67
2019-05-20T21:27:42.105Z,27.48
2019-05-20T21:30:12.183Z,28.35
2019-05-20T21:32:41.635Z,26.30
2019-05-20T21:35:11.128Z,27.55
2019-05-20T21:37:40.648Z,28.15
2019-05-20T21:40:10.318Z,29.35
2019-05-20T21:42:39.743Z,28.32
2019-05-20T21:45:09.624Z,30.85
2019-05-20T21:47:39.063Z,30.27
2019-05-20T21:50:08.882Z,32.28
2019-05-20T21:52:38.330Z,34.25
2019-05-20T21:55:07.786Z,31.95
2019-05-20T21:57:37.217Z,35.75
2019-05-20T22:00:09.000Z,36.33
2019-05-20T22:02:40.234Z,33.50
2019-05-20T22:05:10.005Z,35.20
2019-05-20T22:07:39.545Z,36.25
2019-05-20T22:10:09.915Z,42.98
2019-05-20T22:12:39.364Z,40.58
2019-05-20T22:15:09.245Z,39.80
2019-05-20T22:17:38.751Z,39.35
2019-05-20T22:20:08.658Z,41.33
2019-05-20T22:22:39.744Z,41.55
2019-05-20T22:25:09.168Z,39.92
2019-05-20T22:27:38.540Z,42.53
2019-05-20T22:30:09.821Z,41.85
2019-05-20T22:32:39.180Z,45.30
2019-05-20T22:35:08.715Z,40.78
2019-05-20T22:37:38.152Z,41.40
2019-05-20T22:40:09.196Z,38.02
2019-05-20T22:42:38.624Z,40.12
2019-05-20T22:45:08.234Z,36.53
2019-05-20T22:47:37.711Z,29.57
2019-05-20T22:50:07.308Z,29.52
2019-05-20T22:52:36.685Z,26.30
2019-05-20T22:55:06.763Z,24.70
2019-05-20T22:57:36.239Z,22.07
2019-05-20T23:00:06.727Z,23.40
2019-05-20T23:02:37.713Z,19.87
2019-05-20T23:05:07.216Z,21.37
2019-05-20T23:07:36.575Z,17.23
2019-05-20T23:10:07.193Z,18.27
2019-05-20T23:12:36.539Z,18.02
2019-05-20T23:15:07.367Z,15.63
2019-05-20T23:17:36.744Z,16.62
2019-05-20T23:20:25.461Z,19.20
2019-05-20T23:22:54.829Z,22.30
2019-05-20T23:25:24.251Z,25.95
2019-05-20T23:27:53.688Z,25.48
2019-05-20T23:30:23.221Z,28.75
2019-05-20T23:32:52.644Z,25.82
2019-05-20T23:35:22.015Z,25.30
2019-05-20T23:37:51.554Z,26.65
2019-05-20T23:40:21.215Z,34.05
2019-05-20T23:42:50.599Z,31.25
2019-05-20T23:45:20.028Z,27.22
2019-05-20T23:47:49.409Z,26.02
2019-05-20T23:50:18.763Z,24.65
2019-05-20T23:52:48.132Z,22.07
2019-05-20T23:55:17.639Z,24.85
2019-05-20T23:57:47.003Z,22.85
